sensor_id;sensor_type;location;lat;lon;timestamp;P1;durP1;ratioP1;P2;durP2;ratioP2
2542;SDS011;1116;51.502;7.414;2023-02-28T00:00:14;5.85;;;3.80;;
2542;SDS011;1116;51.502;7.414;2023-02-28T00:02:46;5.22;;;3.85;;
2542;SDS011;1116;51.502;7.414;2023-02-28T00:05:21;6.60;;;3.90;;
2542;SDS011;1116;51.502;7.414;2023-02-28T00:07:53;5.20;;;4.22;;
2542;SDS011;1116;51.502;7.414;2023-02-28T00:10:28;10.02;;;3.90;;
2542;SDS011;1116;51.502;7.414;2023-02-28T00:13:00;7.68;;;4.45;;
2542;SDS011;1116;51.502;7.414;2023-02-28T00:15:33;6.50;;;3.85;;
2542;SDS011;1116;51.502;7.414;2023-02-28T00:18:04;7.70;;;3.90;;
2542;SDS011;1116;51.502;7.414;2023-02-28T00:20:35;4.75;;;4.20;;
2542;SDS011;1116;51.502;7.414;2023-02-28T00:23:06;5.15;;;4.30;;
2542;SDS011;1116;51.502;7.414;2023-02-28T00:25:39;4.45;;;3.95;;
2542;SDS011;1116;51.502;7.414;2023-02-28T00:28:10;5.43;;;3.63;;
2542;SDS011;1116;51.502;7.414;2023-02-28T00:30:41;4.15;;;3.75;;
2542;SDS011;1116;51.502;7.414;2023-02-28T00:33:11;5.32;;;3.83;;
2542;SDS011;1116;51.502;7.414;2023-02-28T00:35:45;5.78;;;3.80;;
2542;SDS011;1116;51.502;7.414;2023-02-28T00:38:16;5.32;;;3.80;;
2542;SDS011;1116;51.502;7.414;2023-02-28T00:40:50;5.38;;;4.30;;
2542;SDS011;1116;51.502;7.414;2023-02-28T00:43:21;6.50;;;4.30;;
2542;SDS011;1116;51.502;7.414;2023-02-28T00:45:51;4.88;;;3.80;;
2542;SDS011;1116;51.502;7.414;2023-02-28T00:48:22;5.40;;;4.28;;
2542;SDS011;1116;51.502;7.414;2023-02-28T00:50:53;4.90;;;3.83;;
2542;SDS011;1116;51.502;7.414;2023-02-28T00:53:24;5.25;;;4.47;;
2542;SDS011;1116;51.502;7.414;2023-02-28T00:55:58;6.38;;;4.15;;
2542;SDS011;1116;51.502;7.414;2023-02-28T00:58:29;6.68;;;4.30;;
2542;SDS011;1116;51.502;7.414;2023-02-28T01:01:07;4.97;;;4.13;;
2542;SDS011;1116;51.502;7.414;2023-02-28T01:03:42;5.97;;;3.90;;
2542;SDS011;1116;51.502;7.414;2023-02-28T01:06:13;4.35;;;3.70;;
2542;SDS011;1116;51.502;7.414;2023-02-28T01:08:43;4.50;;;4.10;;
2542;SDS011;1116;51.502;7.414;2023-02-28T01:11:19;7.15;;;4.10;;
2542;SDS011;1116;51.502;7.414;2023-02-28T01:13:50;7.00;;;4.35;;
2542;SDS011;1116;51.502;7.414;2023-02-28T01:16:21;5.38;;;3.97;;
2542;SDS011;1116;51.502;7.414;2023-02-28T01:18:52;6.35;;;3.85;;
2542;SDS011;1116;51.502;7.414;2023-02-28T01:21:23;4.38;;;3.95;;
2542;SDS011;1116;51.502;7.414;2023-02-28T01:23:55;5.28;;;3.67;;
2542;SDS011;1116;51.502;7.414;2023-02-28T01:26:30;5.07;;;3.80;;
2542;SDS011;1116;51.502;7.414;2023-02-28T01:29:01;5.70;;;4.35;;
2542;SDS011;1116;51.502;7.414;2023-02-28T01:31:32;7.45;;;4.88;;
2542;SDS011;1116;51.502;7.414;2023-02-28T01:34:03;4.50;;;3.58;;
2542;SDS011;1116;51.502;7.414;2023-02-28T01:36:34;4.35;;;3.50;;
2542;SDS011;1116;51.502;7.414;2023-02-28T01:39:05;4.70;;;3.10;;
2542;SDS011;1116;51.502;7.414;2023-02-28T01:41:41;4.43;;;3.50;;
2542;SDS011;1116;51.502;7.414;2023-02-28T01:47:13;4.15;;;3.17;;
2542;SDS011;1116;51.502;7.414;2023-02-28T01:49:44;4.22;;;3.33;;
2542;SDS011;1116;51.502;7.414;2023-02-28T01:52:15;3.70;;;2.95;;
2542;SDS011;1116;51.502;7.414;2023-02-28T01:54:47;4.45;;;3.80;;
2542;SDS011;1116;51.502;7.414;2023-02-28T01:57:24;5.93;;;3.60;;
2542;SDS011;1116;51.502;7.414;2023-02-28T01:59:58;5.35;;;3.50;;
2542;SDS011;1116;51.502;7.414;2023-02-28T02:02:34;4.55;;;3.42;;
2542;SDS011;1116;51.502;7.414;2023-02-28T02:05:08;4.38;;;3.40;;
2542;SDS011;1116;51.502;7.414;2023-02-28T02:07:45;5.03;;;3.97;;
2542;SDS011;1116;51.502;7.414;2023-02-28T02:10:19;6.75;;;3.33;;
2542;SDS011;1116;51.502;7.414;2023-02-28T02:13:01;6.05;;;3.78;;
2542;SDS011;1116;51.502;7.414;2023-02-28T02:15:49;5.78;;;3.60;;
2542;SDS011;1116;51.502;7.414;2023-02-28T02:18:31;6.20;;;4.20;;
2542;SDS011;1116;51.502;7.414;2023-02-28T02:21:22;6.43;;;4.18;;
2542;SDS011;1116;51.502;7.414;2023-02-28T02:24:24;6.18;;;4.00;;
2542;SDS011;1116;51.502;7.414;2023-02-28T02:27:20;4.38;;;3.17;;
2542;SDS011;1116;51.502;7.414;2023-02-28T02:33:26;5.55;;;3.35;;
2542;SDS011;1116;51.502;7.414;2023-02-28T02:36:35;5.80;;;3.80;;
2542;SDS011;1116;51.502;7.414;2023-02-28T02:39:16;6.07;;;4.18;;
2542;SDS011;1116;51.502;7.414;2023-02-28T02:41:55;4.88;;;3.47;;
2542;SDS011;1116;51.502;7.414;2023-02-28T02:44:31;4.10;;;3.50;;
2542;SDS011;1116;51.502;7.414;2023-02-28T02:47:08;7.50;;;4.20;;
2542;SDS011;1116;51.502;7.414;2023-02-28T02:49:42;5.13;;;4.10;;
2542;SDS011;1116;51.502;7.414;2023-02-28T02:52:21;6.18;;;4.18;;
2542;SDS011;1116;51.502;7.414;2023-02-28T02:54:54;5.28;;;3.80;;
2542;SDS011;1116;51.502;7.414;2023-02-28T02:57:29;8.35;;;4.07;;
2542;SDS011;1116;51.502;7.414;2023-02-28T03:00:06;5.03;;;3.55;;
2542;SDS011;1116;51.502;7.414;2023-02-28T03:02:38;8.55;;;4.00;;
2542;SDS011;1116;51.502;7.414;2023-02-28T03:05:12;4.70;;;3.35;;
2542;SDS011;1116;51.502;7.414;2023-02-28T03:07:50;4.18;;;3.42;;
2542;SDS011;1116;51.502;7.414;2023-02-28T03:10:29;6.57;;;3.75;;
2542;SDS011;1116;51.502;7.414;2023-02-28T03:13:18;4.97;;;3.20;;
2542;SDS011;1116;51.502;7.414;2023-02-28T03:16:09;4.32;;;3.17;;
2542;SDS011;1116;51.502;7.414;2023-02-28T03:18:58;5.25;;;2.85;;
2542;SDS011;1116;51.502;7.414;2023-02-28T03:21:56;3.95;;;3.30;;
2542;SDS011;1116;51.502;7.414;2023-02-28T03:24:43;3.65;;;3.00;;
2542;SDS011;1116;51.502;7.414;2023-02-28T03:27:21;5.55;;;3.35;;
2542;SDS011;1116;51.502;7.414;2023-02-28T03:29:58;3.80;;;3.20;;
2542;SDS011;1116;51.502;7.414;2023-02-28T03:32:36;4.80;;;3.60;;
2542;SDS011;1116;51.502;7.414;2023-02-28T03:35:11;6.55;;;3.65;;
2542;SDS011;1116;51.502;7.414;2023-02-28T03:37:50;3.65;;;3.10;;
2542;SDS011;1116;51.502;7.414;2023-02-28T03:40:27;6.10;;;3.00;;
2542;SDS011;1116;51.502;7.414;2023-02-28T03:43:04;3.90;;;3.50;;
2542;SDS011;1116;51.502;7.414;2023-02-28T03:45:40;4.40;;;3.28;;
2542;SDS011;1116;51.502;7.414;2023-02-28T03:48:15;7.05;;;3.88;;
2542;SDS011;1116;51.502;7.414;2023-02-28T03:50:51;3.83;;;3.45;;
2542;SDS011;1116;51.502;7.414;2023-02-28T03:53:25;4.20;;;3.30;;
2542;SDS011;1116;51.502;7.414;2023-02-28T03:56:14;3.58;;;3.28;;
2542;SDS011;1116;51.502;7.414;2023-02-28T03:58:49;4.78;;;3.97;;
2542;SDS011;1116;51.502;7.414;2023-02-28T04:01:25;5.25;;;3.70;;
2542;SDS011;1116;51.502;7.414;2023-02-28T04:04:00;3.38;;;3.08;;
2542;SDS011;1116;51.502;7.414;2023-02-28T04:06:32;5.75;;;3.70;;
2542;SDS011;1116;51.502;7.414;2023-02-28T04:09:05;4.47;;;3.20;;
2542;SDS011;1116;51.502;7.414;2023-02-28T04:11:40;4.00;;;3.53;;
2542;SDS011;1116;51.502;7.414;2023-02-28T04:14:12;3.58;;;3.10;;
2542;SDS011;1116;51.502;7.414;2023-02-28T04:16:42;5.68;;;4.05;;
2542;SDS011;1116;51.502;7.414;2023-02-28T04:19:17;5.18;;;3.75;;
2542;SDS011;1116;51.502;7.414;2023-02-28T04:21:48;5.07;;;3.60;;
2542;SDS011;1116;51.502;7.414;2023-02-28T04:24:21;4.40;;;3.40;;
2542;SDS011;1116;51.502;7.414;2023-02-28T04:26:56;5.15;;;3.47;;
2542;SDS011;1116;51.502;7.414;2023-02-28T04:29:29;4.28;;;3.70;;
2542;SDS011;1116;51.502;7.414;2023-02-28T04:32:02;4.13;;;3.72;;
2542;SDS011;1116;51.502;7.414;2023-02-28T04:34:33;4.90;;;4.00;;
2542;SDS011;1116;51.502;7.414;2023-02-28T04:37:04;5.55;;;4.82;;
2542;SDS011;1116;51.502;7.414;2023-02-28T04:39:40;5.63;;;4.70;;
2542;SDS011;1116;51.502;7.414;2023-02-28T04:42:14;5.65;;;4.75;;
2542;SDS011;1116;51.502;7.414;2023-02-28T04:44:45;5.60;;;4.63;;
2542;SDS011;1116;51.502;7.414;2023-02-28T04:47:16;5.32;;;4.53;;
2542;SDS011;1116;51.502;7.414;2023-02-28T04:49:47;5.90;;;4.63;;
2542;SDS011;1116;51.502;7.414;2023-02-28T04:52:18;5.57;;;4.47;;
2542;SDS011;1116;51.502;7.414;2023-02-28T04:54:49;6.32;;;4.68;;
2542;SDS011;1116;51.502;7.414;2023-02-28T04:57:23;6.43;;;4.40;;
2542;SDS011;1116;51.502;7.414;2023-02-28T04:59:56;7.93;;;4.50;;
2542;SDS011;1116;51.502;7.414;2023-02-28T05:02:27;4.30;;;3.90;;
2542;SDS011;1116;51.502;7.414;2023-02-28T05:04:58;4.35;;;3.95;;
2542;SDS011;1116;51.502;7.414;2023-02-28T05:07:29;5.53;;;4.05;;
2542;SDS011;1116;51.502;7.414;2023-02-28T05:10:00;6.25;;;4.43;;
2542;SDS011;1116;51.502;7.414;2023-02-28T05:12:35;5.70;;;4.15;;
2542;SDS011;1116;51.502;7.414;2023-02-28T05:15:07;5.15;;;4.57;;
2542;SDS011;1116;51.502;7.414;2023-02-28T05:17:42;5.63;;;5.00;;
2542;SDS011;1116;51.502;7.414;2023-02-28T05:20:14;6.30;;;4.40;;
2542;SDS011;1116;51.502;7.414;2023-02-28T05:22:45;7.20;;;5.13;;
2542;SDS011;1116;51.502;7.414;2023-02-28T05:25:16;9.48;;;5.45;;
2542;SDS011;1116;51.502;7.414;2023-02-28T05:27:52;4.85;;;4.22;;
2542;SDS011;1116;51.502;7.414;2023-02-28T05:30:22;5.78;;;5.20;;
2542;SDS011;1116;51.502;7.414;2023-02-28T05:32:53;7.10;;;5.20;;
2542;SDS011;1116;51.502;7.414;2023-02-28T05:35:24;6.90;;;4.57;;
2542;SDS011;1116;51.502;7.414;2023-02-28T05:37:56;6.72;;;4.13;;
2542;SDS011;1116;51.502;7.414;2023-02-28T05:40:26;7.95;;;4.97;;
2542;SDS011;1116;51.502;7.414;2023-02-28T05:43:00;6.47;;;4.47;;
2542;SDS011;1116;51.502;7.414;2023-02-28T05:45:31;4.85;;;4.13;;
2542;SDS011;1116;51.502;7.414;2023-02-28T05:48:02;5.47;;;4.35;;
2542;SDS011;1116;51.502;7.414;2023-02-28T05:50:33;5.47;;;3.70;;
2542;SDS011;1116;51.502;7.414;2023-02-28T05:53:03;5.40;;;3.95;;
2542;SDS011;1116;51.502;7.414;2023-02-28T05:55:34;5.65;;;4.03;;
2542;SDS011;1116;51.502;7.414;2023-02-28T05:58:08;6.30;;;4.30;;
2542;SDS011;1116;51.502;7.414;2023-02-28T06:00:39;5.72;;;4.05;;
2542;SDS011;1116;51.502;7.414;2023-02-28T06:03:10;7.25;;;4.20;;
2542;SDS011;1116;51.502;7.414;2023-02-28T06:05:41;5.47;;;4.18;;
2542;SDS011;1116;51.502;7.414;2023-02-28T06:08:12;4.78;;;4.10;;
2542;SDS011;1116;51.502;7.414;2023-02-28T06:10:42;5.55;;;3.70;;
2542;SDS011;1116;51.502;7.414;2023-02-28T06:13:16;6.05;;;4.10;;
2542;SDS011;1116;51.502;7.414;2023-02-28T06:15:46;8.00;;;4.40;;
2542;SDS011;1116;51.502;7.414;2023-02-28T06:18:17;5.88;;;4.13;;
2542;SDS011;1116;51.502;7.414;2023-02-28T06:20:51;6.13;;;4.00;;
2542;SDS011;1116;51.502;7.414;2023-02-28T06:23:23;6.22;;;3.45;;
2542;SDS011;1116;51.502;7.414;2023-02-28T06:25:54;4.10;;;3.67;;
2542;SDS011;1116;51.502;7.414;2023-02-28T06:28:28;6.25;;;4.10;;
2542;SDS011;1116;51.502;7.414;2023-02-28T06:30:59;5.90;;;4.35;;
2542;SDS011;1116;51.502;7.414;2023-02-28T06:33:30;5.40;;;3.95;;
2542;SDS011;1116;51.502;7.414;2023-02-28T06:36:00;5.75;;;4.53;;
2542;SDS011;1116;51.502;7.414;2023-02-28T06:38:31;5.10;;;4.10;;
2542;SDS011;1116;51.502;7.414;2023-02-28T06:41:05;4.20;;;3.45;;
2542;SDS011;1116;51.502;7.414;2023-02-28T06:43:40;4.30;;;3.90;;
2542;SDS011;1116;51.502;7.414;2023-02-28T06:46:12;5.07;;;4.15;;
2542;SDS011;1116;51.502;7.414;2023-02-28T06:48:47;5.60;;;4.70;;
2542;SDS011;1116;51.502;7.414;2023-02-28T06:51:19;10.07;;;4.10;;
2542;SDS011;1116;51.502;7.414;2023-02-28T06:53:51;5.95;;;4.55;;
2542;SDS011;1116;51.502;7.414;2023-02-28T06:56:22;4.90;;;4.40;;
2542;SDS011;1116;51.502;7.414;2023-02-28T06:58:56;4.30;;;3.90;;
2542;SDS011;1116;51.502;7.414;2023-02-28T07:01:26;5.85;;;3.60;;
2542;SDS011;1116;51.502;7.414;2023-02-28T07:03:59;11.20;;;4.25;;
2542;SDS011;1116;51.502;7.414;2023-02-28T07:06:30;4.72;;;4.25;;
2542;SDS011;1116;51.502;7.414;2023-02-28T07:09:01;5.60;;;4.32;;
2542;SDS011;1116;51.502;7.414;2023-02-28T07:11:34;6.78;;;5.07;;
2542;SDS011;1116;51.502;7.414;2023-02-28T07:14:07;8.13;;;4.75;;
2542;SDS011;1116;51.502;7.414;2023-02-28T07:16:39;6.88;;;4.60;;
2542;SDS011;1116;51.502;7.414;2023-02-28T07:19:09;8.00;;;4.90;;
2542;SDS011;1116;51.502;7.414;2023-02-28T07:21:40;7.38;;;4.90;;
2542;SDS011;1116;51.502;7.414;2023-02-28T07:24:11;5.72;;;4.10;;
2542;SDS011;1116;51.502;7.414;2023-02-28T07:26:43;5.97;;;4.95;;
2542;SDS011;1116;51.502;7.414;2023-02-28T07:29:16;5.47;;;4.72;;
2542;SDS011;1116;51.502;7.414;2023-02-28T07:31:47;4.60;;;4.15;;
2542;SDS011;1116;51.502;7.414;2023-02-28T07:34:20;8.00;;;5.00;;
2542;SDS011;1116;51.502;7.414;2023-02-28T07:36:53;5.30;;;4.80;;
2542;SDS011;1116;51.502;7.414;2023-02-28T07:39:24;6.03;;;4.93;;
2542;SDS011;1116;51.502;7.414;2023-02-28T07:41:55;5.43;;;4.85;;
2542;SDS011;1116;51.502;7.414;2023-02-28T07:44:29;6.68;;;4.63;;
2542;SDS011;1116;51.502;7.414;2023-02-28T07:47:03;6.53;;;5.07;;
2542;SDS011;1116;51.502;7.414;2023-02-28T07:49:34;7.65;;;5.05;;
2542;SDS011;1116;51.502;7.414;2023-02-28T07:52:05;6.13;;;4.35;;
2542;SDS011;1116;51.502;7.414;2023-02-28T07:54:39;5.90;;;5.07;;
2542;SDS011;1116;51.502;7.414;2023-02-28T07:57:09;5.57;;;4.90;;
2542;SDS011;1116;51.502;7.414;2023-02-28T07:59:43;6.35;;;4.88;;
2542;SDS011;1116;51.502;7.414;2023-02-28T08:02:17;7.30;;;4.72;;
2542;SDS011;1116;51.502;7.414;2023-02-28T08:04:48;6.80;;;5.13;;
2542;SDS011;1116;51.502;7.414;2023-02-28T08:07:19;7.40;;;4.90;;
2542;SDS011;1116;51.502;7.414;2023-02-28T08:09:50;5.30;;;4.57;;
2542;SDS011;1116;51.502;7.414;2023-02-28T08:12:21;8.90;;;4.43;;
2542;SDS011;1116;51.502;7.414;2023-02-28T08:14:54;5.07;;;4.15;;
2542;SDS011;1116;51.502;7.414;2023-02-28T08:17:25;10.40;;;4.65;;
2542;SDS011;1116;51.502;7.414;2023-02-28T08:19:56;3.60;;;3.30;;
2542;SDS011;1116;51.502;7.414;2023-02-28T08:22:27;6.18;;;4.20;;
2542;SDS011;1116;51.502;7.414;2023-02-28T08:24:57;5.07;;;3.90;;
2542;SDS011;1116;51.502;7.414;2023-02-28T08:27:28;6.85;;;3.97;;
2542;SDS011;1116;51.502;7.414;2023-02-28T08:30:02;3.95;;;3.03;;
2542;SDS011;1116;51.502;7.414;2023-02-28T08:32:33;5.32;;;3.97;;
2542;SDS011;1116;51.502;7.414;2023-02-28T08:35:05;3.83;;;3.42;;
2542;SDS011;1116;51.502;7.414;2023-02-28T08:37:36;3.97;;;3.63;;
2542;SDS011;1116;51.502;7.414;2023-02-28T08:40:08;5.15;;;3.10;;
2542;SDS011;1116;51.502;7.414;2023-02-28T08:42:45;5.55;;;3.70;;
2542;SDS011;1116;51.502;7.414;2023-02-28T08:45:19;4.70;;;3.58;;
2542;SDS011;1116;51.502;7.414;2023-02-28T08:47:50;4.50;;;3.00;;
2542;SDS011;1116;51.502;7.414;2023-02-28T08:50:21;4.05;;;3.20;;
2542;SDS011;1116;51.502;7.414;2023-02-28T08:52:52;5.60;;;3.70;;
2542;SDS011;1116;51.502;7.414;2023-02-28T08:55:24;5.13;;;3.50;;
2542;SDS011;1116;51.502;7.414;2023-02-28T08:57:55;3.85;;;3.00;;
2542;SDS011;1116;51.502;7.414;2023-02-28T09:00:28;5.50;;;3.60;;
2542;SDS011;1116;51.502;7.414;2023-02-28T09:02:59;4.85;;;3.60;;
2542;SDS011;1116;51.502;7.414;2023-02-28T09:05:30;3.38;;;3.08;;
2542;SDS011;1116;51.502;7.414;2023-02-28T09:08:01;6.72;;;3.00;;
2542;SDS011;1116;51.502;7.414;2023-02-28T09:10:32;4.57;;;3.00;;
2542;SDS011;1116;51.502;7.414;2023-02-28T09:13:03;5.95;;;3.22;;
2542;SDS011;1116;51.502;7.414;2023-02-28T09:15:39;4.40;;;3.47;;
2542;SDS011;1116;51.502;7.414;2023-02-28T09:18:10;3.38;;;3.00;;
2542;SDS011;1116;51.502;7.414;2023-02-28T09:20:41;3.88;;;2.90;;
2542;SDS011;1116;51.502;7.414;2023-02-28T09:23:12;6.05;;;3.10;;
2542;SDS011;1116;51.502;7.414;2023-02-28T09:25:45;6.30;;;3.30;;
2542;SDS011;1116;51.502;7.414;2023-02-28T09:28:17;3.25;;;2.65;;
2542;SDS011;1116;51.502;7.414;2023-02-28T09:30:52;3.83;;;2.80;;
2542;SDS011;1116;51.502;7.414;2023-02-28T09:33:25;2.92;;;2.67;;
2542;SDS011;1116;51.502;7.414;2023-02-28T09:36:00;3.05;;;2.75;;
2542;SDS011;1116;51.502;7.414;2023-02-28T09:38:33;3.20;;;2.90;;
2542;SDS011;1116;51.502;7.414;2023-02-28T09:41:08;3.25;;;2.95;;
2542;SDS011;1116;51.502;7.414;2023-02-28T09:43:49;2.53;;;2.30;;
2542;SDS011;1116;51.502;7.414;2023-02-28T09:46:29;2.97;;;2.67;;
2542;SDS011;1116;51.502;7.414;2023-02-28T09:49:05;4.03;;;2.88;;
2542;SDS011;1116;51.502;7.414;2023-02-28T09:51:44;2.92;;;2.63;;
2542;SDS011;1116;51.502;7.414;2023-02-28T09:54:21;4.32;;;2.50;;
2542;SDS011;1116;51.502;7.414;2023-02-28T09:56:53;2.70;;;2.50;;
2542;SDS011;1116;51.502;7.414;2023-02-28T09:59:32;2.95;;;2.75;;
2542;SDS011;1116;51.502;7.414;2023-02-28T10:02:26;6.47;;;3.03;;
2542;SDS011;1116;51.502;7.414;2023-02-28T10:05:11;3.80;;;2.75;;
2542;SDS011;1116;51.502;7.414;2023-02-28T10:07:50;3.80;;;2.67;;
2542;SDS011;1116;51.502;7.414;2023-02-28T10:10:33;3.47;;;2.90;;
2542;SDS011;1116;51.502;7.414;2023-02-28T10:13:13;4.73;;;2.50;;
2542;SDS011;1116;51.502;7.414;2023-02-28T10:15:49;2.60;;;2.40;;
2542;SDS011;1116;51.502;7.414;2023-02-28T10:18:26;4.10;;;2.67;;
2542;SDS011;1116;51.502;7.414;2023-02-28T10:21:01;2.70;;;2.45;;
2542;SDS011;1116;51.502;7.414;2023-02-28T10:23:34;3.03;;;2.17;;
2542;SDS011;1116;51.502;7.414;2023-02-28T10:26:09;2.73;;;2.50;;
2542;SDS011;1116;51.502;7.414;2023-02-28T10:28:45;2.33;;;2.13;;
2542;SDS011;1116;51.502;7.414;2023-02-28T10:31:17;5.23;;;2.20;;
2542;SDS011;1116;51.502;7.414;2023-02-28T10:33:55;2.70;;;2.17;;
2542;SDS011;1116;51.502;7.414;2023-02-28T10:36:26;2.17;;;1.97;;
2542;SDS011;1116;51.502;7.414;2023-02-28T10:38:57;2.27;;;1.70;;
2542;SDS011;1116;51.502;7.414;2023-02-28T10:41:29;5.07;;;2.03;;
2542;SDS011;1116;51.502;7.414;2023-02-28T10:44:13;2.20;;;1.83;;
2542;SDS011;1116;51.502;7.414;2023-02-28T10:46:48;2.10;;;1.80;;
2542;SDS011;1116;51.502;7.414;2023-02-28T10:49:23;2.47;;;2.27;;
2542;SDS011;1116;51.502;7.414;2023-02-28T10:51:57;2.13;;;1.80;;
2542;SDS011;1116;51.502;7.414;2023-02-28T10:54:33;2.13;;;1.93;;
2542;SDS011;1116;51.502;7.414;2023-02-28T10:57:07;3.20;;;2.33;;
2542;SDS011;1116;51.502;7.414;2023-02-28T10:59:50;4.23;;;2.30;;
2542;SDS011;1116;51.502;7.414;2023-02-28T11:02:29;2.30;;;2.00;;
2542;SDS011;1116;51.502;7.414;2023-02-28T11:08:03;2.40;;;2.20;;
2542;SDS011;1116;51.502;7.414;2023-02-28T11:10:36;3.67;;;2.58;;
2542;SDS011;1116;51.502;7.414;2023-02-28T11:13:12;3.00;;;2.30;;
2542;SDS011;1116;51.502;7.414;2023-02-28T11:15:51;2.60;;;2.40;;
2542;SDS011;1116;51.502;7.414;2023-02-28T11:19:06;4.00;;;2.50;;
2542;SDS011;1116;51.502;7.414;2023-02-28T11:21:54;2.73;;;2.50;;
2542;SDS011;1116;51.502;7.414;2023-02-28T11:24:28;3.07;;;2.40;;
2542;SDS011;1116;51.502;7.414;2023-02-28T11:27:03;2.90;;;2.60;;
2542;SDS011;1116;51.502;7.414;2023-02-28T11:29:38;2.60;;;2.20;;
2542;SDS011;1116;51.502;7.414;2023-02-28T11:32:18;3.10;;;2.70;;
2542;SDS011;1116;51.502;7.414;2023-02-28T11:34:59;4.33;;;2.37;;
2542;SDS011;1116;51.502;7.414;2023-02-28T11:37:35;3.93;;;2.70;;
2542;SDS011;1116;51.502;7.414;2023-02-28T11:40:09;7.13;;;3.73;;
2542;SDS011;1116;51.502;7.414;2023-02-28T11:42:47;3.10;;;2.80;;
2542;SDS011;1116;51.502;7.414;2023-02-28T11:45:34;2.60;;;2.40;;
2542;SDS011;1116;51.502;7.414;2023-02-28T11:48:14;2.60;;;2.40;;
2542;SDS011;1116;51.502;7.414;2023-02-28T11:50:53;3.37;;;2.60;;
2542;SDS011;1116;51.502;7.414;2023-02-28T11:53:39;3.07;;;2.27;;
2542;SDS011;1116;51.502;7.414;2023-02-28T11:56:29;3.57;;;2.70;;
2542;SDS011;1116;51.502;7.414;2023-02-28T11:59:11;2.83;;;2.50;;
2542;SDS011;1116;51.502;7.414;2023-02-28T12:02:05;2.80;;;2.60;;
2542;SDS011;1116;51.502;7.414;2023-02-28T12:04:55;3.40;;;2.50;;
2542;SDS011;1116;51.502;7.414;2023-02-28T12:07:49;3.13;;;2.30;;
2542;SDS011;1116;51.502;7.414;2023-02-28T12:10:32;2.73;;;2.50;;
2542;SDS011;1116;51.502;7.414;2023-02-28T12:13:39;3.57;;;3.07;;
2542;SDS011;1116;51.502;7.414;2023-02-28T12:16:29;3.07;;;2.50;;
2542;SDS011;1116;51.502;7.414;2023-02-28T12:19:15;3.07;;;2.83;;
2542;SDS011;1116;51.502;7.414;2023-02-28T12:27:56;5.77;;;2.60;;
2542;SDS011;1116;51.502;7.414;2023-02-28T12:30:28;3.07;;;2.87;;
2542;SDS011;1116;51.502;7.414;2023-02-28T12:33:03;2.93;;;2.60;;
2542;SDS011;1116;51.502;7.414;2023-02-28T12:35:37;3.20;;;2.87;;
2542;SDS011;1116;51.502;7.414;2023-02-28T12:38:14;7.53;;;3.20;;
2542;SDS011;1116;51.502;7.414;2023-02-28T12:40:50;4.10;;;3.70;;
2542;SDS011;1116;51.502;7.414;2023-02-28T12:43:29;3.30;;;3.00;;
2542;SDS011;1116;51.502;7.414;2023-02-28T12:46:06;3.40;;;3.00;;
2542;SDS011;1116;51.502;7.414;2023-02-28T12:48:42;3.13;;;2.83;;
2542;SDS011;1116;51.502;7.414;2023-02-28T12:51:17;4.10;;;3.20;;
2542;SDS011;1116;51.502;7.414;2023-02-28T12:53:50;3.40;;;3.10;;
2542;SDS011;1116;51.502;7.414;2023-02-28T12:56:30;3.37;;;3.13;;
2542;SDS011;1116;51.502;7.414;2023-02-28T12:59:13;3.43;;;3.10;;
2542;SDS011;1116;51.502;7.414;2023-02-28T13:01:56;3.60;;;3.27;;
2542;SDS011;1116;51.502;7.414;2023-02-28T13:04:42;3.70;;;2.90;;
2542;SDS011;1116;51.502;7.414;2023-02-28T13:07:36;3.07;;;2.87;;
2542;SDS011;1116;51.502;7.414;2023-02-28T13:10:37;3.33;;;2.90;;
2542;SDS011;1116;51.502;7.414;2023-02-28T13:13:13;3.93;;;2.93;;
2542;SDS011;1116;51.502;7.414;2023-02-28T13:16:02;4.63;;;3.40;;
2542;SDS011;1116;51.502;7.414;2023-02-28T13:18:35;3.47;;;3.00;;
2542;SDS011;1116;51.502;7.414;2023-02-28T13:21:08;4.23;;;3.37;;
2542;SDS011;1116;51.502;7.414;2023-02-28T13:23:59;4.90;;;2.97;;
2542;SDS011;1116;51.502;7.414;2023-02-28T13:29:41;3.43;;;3.13;;
2542;SDS011;1116;51.502;7.414;2023-02-28T13:38:33;3.93;;;3.07;;
2542;SDS011;1116;51.502;7.414;2023-02-28T13:44:08;4.40;;;3.50;;
2542;SDS011;1116;51.502;7.414;2023-02-28T13:49:44;3.90;;;3.50;;
2542;SDS011;1116;51.502;7.414;2023-02-28T13:52:16;3.07;;;2.87;;
2542;SDS011;1116;51.502;7.414;2023-02-28T13:58:08;5.30;;;3.20;;
2542;SDS011;1116;51.502;7.414;2023-02-28T14:00:57;3.20;;;2.90;;
2542;SDS011;1116;51.502;7.414;2023-02-28T14:03:44;3.70;;;3.40;;
2542;SDS011;1116;51.502;7.414;2023-02-28T14:06:45;4.17;;;3.70;;
2542;SDS011;1116;51.502;7.414;2023-02-28T14:09:20;4.40;;;4.00;;
2542;SDS011;1116;51.502;7.414;2023-02-28T14:11:55;4.30;;;3.90;;
2542;SDS011;1116;51.502;7.414;2023-02-28T14:17:33;4.37;;;3.97;;
2542;SDS011;1116;51.502;7.414;2023-02-28T14:20:04;5.03;;;4.30;;
2542;SDS011;1116;51.502;7.414;2023-02-28T14:22:49;7.43;;;4.03;;
2542;SDS011;1116;51.502;7.414;2023-02-28T14:25:29;4.90;;;3.90;;
2542;SDS011;1116;51.502;7.414;2023-02-28T14:28:09;3.97;;;3.57;;
2542;SDS011;1116;51.502;7.414;2023-02-28T14:30:55;4.37;;;4.00;;
2542;SDS011;1116;51.502;7.414;2023-02-28T14:33:34;3.90;;;3.00;;
2542;SDS011;1116;51.502;7.414;2023-02-28T14:36:16;4.17;;;3.53;;
2542;SDS011;1116;51.502;7.414;2023-02-28T14:38:53;4.07;;;3.33;;
2542;SDS011;1116;51.502;7.414;2023-02-28T14:41:29;4.07;;;3.70;;
2542;SDS011;1116;51.502;7.414;2023-02-28T14:44:12;4.20;;;3.83;;
2542;SDS011;1116;51.502;7.414;2023-02-28T14:46:46;4.23;;;3.90;;
2542;SDS011;1116;51.502;7.414;2023-02-28T14:49:24;3.60;;;3.30;;
2542;SDS011;1116;51.502;7.414;2023-02-28T14:52:05;4.50;;;3.67;;
2542;SDS011;1116;51.502;7.414;2023-02-28T14:54:44;4.77;;;4.20;;
2542;SDS011;1116;51.502;7.414;2023-02-28T14:57:22;5.10;;;3.50;;
2542;SDS011;1116;51.502;7.414;2023-02-28T14:59:58;5.23;;;4.50;;
2542;SDS011;1116;51.502;7.414;2023-02-28T15:02:33;4.10;;;3.70;;
2542;SDS011;1116;51.502;7.414;2023-02-28T15:05:16;4.30;;;3.90;;
2542;SDS011;1116;51.502;7.414;2023-02-28T15:08:04;3.70;;;3.40;;
2542;SDS011;1116;51.502;7.414;2023-02-28T15:10:44;4.07;;;3.67;;
2542;SDS011;1116;51.502;7.414;2023-02-28T15:13:20;3.73;;;3.20;;
2542;SDS011;1116;51.502;7.414;2023-02-28T15:15:53;4.10;;;3.80;;
2542;SDS011;1116;51.502;7.414;2023-02-28T15:18:31;5.13;;;3.50;;
2542;SDS011;1116;51.502;7.414;2023-02-28T15:21:10;3.27;;;3.03;;
2542;SDS011;1116;51.502;7.414;2023-02-28T15:23:45;4.03;;;3.70;;
2542;SDS011;1116;51.502;7.414;2023-02-28T15:26:23;4.07;;;3.77;;
2542;SDS011;1116;51.502;7.414;2023-02-28T15:29:00;5.83;;;4.40;;
2542;SDS011;1116;51.502;7.414;2023-02-28T15:31:34;4.23;;;3.80;;
2542;SDS011;1116;51.502;7.414;2023-02-28T15:34:27;4.43;;;4.03;;
2542;SDS011;1116;51.502;7.414;2023-02-28T15:37:29;4.33;;;3.80;;
2542;SDS011;1116;51.502;7.414;2023-02-28T15:40:12;3.83;;;3.50;;
2542;SDS011;1116;51.502;7.414;2023-02-28T15:43:00;4.63;;;4.10;;
2542;SDS011;1116;51.502;7.414;2023-02-28T15:45:36;3.80;;;3.47;;
2542;SDS011;1116;51.502;7.414;2023-02-28T15:48:13;3.90;;;3.50;;
2542;SDS011;1116;51.502;7.414;2023-02-28T15:50:50;4.00;;;3.60;;
2542;SDS011;1116;51.502;7.414;2023-02-28T15:53:24;4.10;;;3.70;;
2542;SDS011;1116;51.502;7.414;2023-02-28T15:55:59;4.40;;;3.70;;
2542;SDS011;1116;51.502;7.414;2023-02-28T15:58:35;4.67;;;4.10;;
2542;SDS011;1116;51.502;7.414;2023-02-28T16:01:16;4.70;;;3.97;;
2542;SDS011;1116;51.502;7.414;2023-02-28T16:03:51;4.47;;;4.07;;
2542;SDS011;1116;51.502;7.414;2023-02-28T16:06:35;4.93;;;3.80;;
2542;SDS011;1116;51.502;7.414;2023-02-28T16:09:10;6.17;;;4.40;;
2542;SDS011;1116;51.502;7.414;2023-02-28T16:11:43;9.17;;;5.50;;
2542;SDS011;1116;51.502;7.414;2023-02-28T16:14:20;9.20;;;5.60;;
2542;SDS011;1116;51.502;7.414;2023-02-28T16:16:55;10.13;;;6.40;;
2542;SDS011;1116;51.502;7.414;2023-02-28T16:19:32;6.73;;;4.90;;
2542;SDS011;1116;51.502;7.414;2023-02-28T16:22:03;5.20;;;4.10;;
2542;SDS011;1116;51.502;7.414;2023-02-28T16:24:34;4.27;;;3.77;;
2542;SDS011;1116;51.502;7.414;2023-02-28T16:27:06;4.70;;;4.30;;
2542;SDS011;1116;51.502;7.414;2023-02-28T16:29:47;4.97;;;3.60;;
2542;SDS011;1116;51.502;7.414;2023-02-28T16:32:19;3.77;;;3.13;;
2542;SDS011;1116;51.502;7.414;2023-02-28T16:34:50;3.70;;;3.30;;
2542;SDS011;1116;51.502;7.414;2023-02-28T16:37:21;3.83;;;3.20;;
2542;SDS011;1116;51.502;7.414;2023-02-28T16:39:51;4.03;;;3.63;;
2542;SDS011;1116;51.502;7.414;2023-02-28T16:42:23;3.83;;;3.33;;
2542;SDS011;1116;51.502;7.414;2023-02-28T16:45:00;7.00;;;4.00;;